createdAt,value
2023-10-20T00:00:00.000Z,45.66
2023-10-20T00:15:00.000Z,45.38
2023-10-20T00:30:00.000Z,44.96
2023-10-20T00:45:00.000Z,43.31
2023-10-20T01:00:00.000Z,42.74
2023-10-20T01:15:00.000Z,41.91
2023-10-20T01:30:00.000Z,40.96
2023-10-20T01:45:00.000Z,42.54
2023-10-20T02:00:00.000Z,44.05
2023-10-20T02:15:00.000Z,41.88
2023-10-20T02:30:00.000Z,43.34
2023-10-20T02:45:00.000Z,45.58
2023-10-20T03:00:00.000Z,46.33
2023-10-20T03:15:00.000Z,42.07
2023-10-20T03:30:00.000Z,42.02
2023-10-20T03:45:00.000Z,41.96
2023-10-20T04:00:00.000Z,42.22
2023-10-20T04:15:00.000Z,42.33
2023-10-20T04:30:00.000Z,41.45
2023-10-20T04:45:00.000Z,41.4
2023-10-20T05:00:00.000Z,41.68
2023-10-20T05:15:00.000Z,41.31
2023-10-20T05:30:00.000Z,42.85
2023-10-20T05:45:00.000Z,41.72
2023-10-20T06:00:00.000Z,40.38
2023-10-20T06:15:00.000Z,40.58
2023-10-20T06:30:00.000Z,41.87
2023-10-20T06:45:00.000Z,41.91
2023-10-20T07:00:00.000Z,41.74
2023-10-20T07:15:00.000Z,40.22
2023-10-20T07:30:00.000Z,38.29
2023-10-20T07:45:00.000Z,38.62
2023-10-20T08:00:00.000Z,34.52
2023-10-20T08:15:00.000Z,34.19
2023-10-20T08:30:00.000Z,36.91
2023-10-20T08:45:00.000Z,35.34
2023-10-20T09:00:00.000Z,33.55
2023-10-20T09:15:00.000Z,31.14
2023-10-20T09:30:00.000Z,29.29
2023-10-20T09:45:00.000Z,30.4
2023-10-20T10:00:00.000Z,28.93
2023-10-20T10:15:00.000Z,28.64
2023-10-20T10:30:00.000Z,27.71
2023-10-20T10:45:00.000Z,26.47
2023-10-20T11:00:00.000Z,26.4
2023-10-20T11:15:00.000Z,25.28
2023-10-20T11:30:00.000Z,29.87
2023-10-20T11:45:00.000Z,20.14
2023-10-20T12:00:00.000Z,18.86
2023-10-20T12:15:00.000Z,18.16
2023-10-20T12:30:00.000Z,21.11
2023-10-20T12:45:00.000Z,19.8
2023-10-20T13:00:00.000Z,18.8
2023-10-20T13:15:00.000Z,18.16
2023-10-20T13:30:00.000Z,15.22
2023-10-20T13:45:00.000Z,15.52
2023-10-20T14:00:00.000Z,18.26
2023-10-20T14:15:00.000Z,22.48
2023-10-20T14:30:00.000Z,16.48
2023-10-20T14:45:00.000Z,15.68
2023-10-20T15:00:00.000Z,13.93
2023-10-20T15:15:00.000Z,12.49
2023-10-20T15:30:00.000Z,9.67
2023-10-20T15:45:00.000Z,7.34
2023-10-20T16:00:00.000Z,6.73
2023-10-20T16:15:00.000Z,5.89
2023-10-20T16:30:00.000Z,6.89
2023-10-20T16:45:00.000Z,5.62
2023-10-20T17:00:00.000Z,9.35
2023-10-20T17:15:00.000Z,6.51
2023-10-20T17:30:00.000Z,7.93
2023-10-20T17:45:00.000Z,8.99
2023-10-20T18:00:00.000Z,8.81
2023-10-20T18:15:00.000Z,7.88
2023-10-20T18:30:00.000Z,7.54
2023-10-20T18:45:00.000Z,4.74
2023-10-20T19:00:00.000Z,5.82
2023-10-20T19:15:00.000Z,2.96
2023-10-20T19:30:00.000Z,3.49
2023-10-20T19:45:00.000Z,5.22
2023-10-20T20:00:00.000Z,3.58
2023-10-20T20:15:00.000Z,5.44
2023-10-20T20:30:00.000Z,4.27
2023-10-20T20:45:00.000Z,3.81
2023-10-20T21:00:00.000Z,2.69
2023-10-20T21:15:00.000Z,3.66
2023-10-20T21:30:00.000Z,4
2023-10-20T21:45:00.000Z,4.22
2023-10-20T22:00:00.000Z,3.46
2023-10-20T22:15:00.000Z,2.84
2023-10-20T22:30:00.000Z,2.07
2023-10-20T22:45:00.000Z,2.34
2023-10-20T23:00:00.000Z,2.35
2023-10-20T23:15:00.000Z,1.75
2023-10-20T23:30:00.000Z,1.68
2023-10-20T23:45:00.000Z,1.89
